sensor_id;sensor_type;location;lat;lon;timestamp;P1;durP1;ratioP1;P2;durP2;ratioP2
27746;SDS011;15138;51.012;4.692;2023-03-14T00:02:18;8.88;;;2.05;;
27746;SDS011;15138;51.012;4.692;2023-03-14T00:04:49;8.65;;;1.60;;
27746;SDS011;15138;51.012;4.692;2023-03-14T00:07:18;6.80;;;1.48;;
27746;SDS011;15138;51.012;4.692;2023-03-14T00:09:46;5.93;;;1.25;;
27746;SDS011;15138;51.012;4.692;2023-03-14T00:12:15;8.05;;;1.40;;
27746;SDS011;15138;51.012;4.692;2023-03-14T00:14:44;10.70;;;1.55;;
27746;SDS011;15138;51.012;4.692;2023-03-14T00:17:12;8.82;;;1.45;;
27746;SDS011;15138;51.012;4.692;2023-03-14T00:19:41;12.30;;;1.95;;
27746;SDS011;15138;51.012;4.692;2023-03-14T00:22:10;11.35;;;1.80;;
27746;SDS011;15138;51.012;4.692;2023-03-14T00:24:39;7.20;;;1.38;;
27746;SDS011;15138;51.012;4.692;2023-03-14T00:27:08;7.60;;;1.83;;
27746;SDS011;15138;51.012;4.692;2023-03-14T00:29:36;9.15;;;1.83;;
27746;SDS011;15138;51.012;4.692;2023-03-14T00:32:05;13.82;;;1.80;;
27746;SDS011;15138;51.012;4.692;2023-03-14T00:34:34;9.32;;;1.48;;
27746;SDS011;15138;51.012;4.692;2023-03-14T00:37:03;11.32;;;1.80;;
27746;SDS011;15138;51.012;4.692;2023-03-14T00:39:33;10.30;;;2.00;;
27746;SDS011;15138;51.012;4.692;2023-03-14T00:42:01;10.77;;;2.50;;
27746;SDS011;15138;51.012;4.692;2023-03-14T00:44:30;8.98;;;1.75;;
27746;SDS011;15138;51.012;4.692;2023-03-14T00:46:59;11.45;;;2.45;;
27746;SDS011;15138;51.012;4.692;2023-03-14T00:49:28;9.02;;;1.70;;
27746;SDS011;15138;51.012;4.692;2023-03-14T00:51:56;8.68;;;2.13;;
27746;SDS011;15138;51.012;4.692;2023-03-14T00:54:25;7.35;;;1.95;;
27746;SDS011;15138;51.012;4.692;2023-03-14T00:56:55;12.55;;;2.15;;
27746;SDS011;15138;51.012;4.692;2023-03-14T00:59:23;18.33;;;2.10;;
27746;SDS011;15138;51.012;4.692;2023-03-14T01:01:52;8.82;;;1.58;;
27746;SDS011;15138;51.012;4.692;2023-03-14T01:04:21;13.48;;;2.25;;
27746;SDS011;15138;51.012;4.692;2023-03-14T01:06:50;10.95;;;1.60;;
27746;SDS011;15138;51.012;4.692;2023-03-14T01:09:18;11.85;;;2.30;;
27746;SDS011;15138;51.012;4.692;2023-03-14T01:11:47;14.00;;;2.17;;
27746;SDS011;15138;51.012;4.692;2023-03-14T01:14:17;16.85;;;2.70;;
27746;SDS011;15138;51.012;4.692;2023-03-14T01:16:46;9.05;;;2.33;;
27746;SDS011;15138;51.012;4.692;2023-03-14T01:19:15;14.15;;;2.33;;
27746;SDS011;15138;51.012;4.692;2023-03-14T01:21:43;12.02;;;2.50;;
27746;SDS011;15138;51.012;4.692;2023-03-14T01:24:12;11.57;;;2.17;;
27746;SDS011;15138;51.012;4.692;2023-03-14T01:26:40;14.57;;;2.50;;
27746;SDS011;15138;51.012;4.692;2023-03-14T01:29:09;12.50;;;2.50;;
27746;SDS011;15138;51.012;4.692;2023-03-14T01:31:39;13.75;;;2.20;;
27746;SDS011;15138;51.012;4.692;2023-03-14T01:34:08;15.55;;;2.90;;
27746;SDS011;15138;51.012;4.692;2023-03-14T01:36:37;17.25;;;2.40;;
27746;SDS011;15138;51.012;4.692;2023-03-14T01:39:05;10.05;;;1.90;;
27746;SDS011;15138;51.012;4.692;2023-03-14T01:41:35;7.30;;;1.48;;
27746;SDS011;15138;51.012;4.692;2023-03-14T01:44:03;15.63;;;2.90;;
27746;SDS011;15138;51.012;4.692;2023-03-14T01:46:34;8.40;;;2.10;;
27746;SDS011;15138;51.012;4.692;2023-03-14T01:49:11;11.30;;;2.60;;
27746;SDS011;15138;51.012;4.692;2023-03-14T01:51:43;10.18;;;2.22;;
27746;SDS011;15138;51.012;4.692;2023-03-14T01:54:14;11.98;;;2.35;;
27746;SDS011;15138;51.012;4.692;2023-03-14T01:56:45;13.23;;;1.80;;
27746;SDS011;15138;51.012;4.692;2023-03-14T01:59:14;13.75;;;2.10;;
27746;SDS011;15138;51.012;4.692;2023-03-14T02:01:43;8.85;;;1.45;;
27746;SDS011;15138;51.012;4.692;2023-03-14T02:04:14;10.10;;;2.42;;
27746;SDS011;15138;51.012;4.692;2023-03-14T02:06:50;11.10;;;2.20;;
27746;SDS011;15138;51.012;4.692;2023-03-14T02:09:20;10.38;;;1.95;;
27746;SDS011;15138;51.012;4.692;2023-03-14T02:11:48;12.15;;;2.15;;
27746;SDS011;15138;51.012;4.692;2023-03-14T02:14:20;11.63;;;2.25;;
27746;SDS011;15138;51.012;4.692;2023-03-14T02:16:50;9.35;;;1.90;;
27746;SDS011;15138;51.012;4.692;2023-03-14T02:19:22;13.40;;;2.10;;
27746;SDS011;15138;51.012;4.692;2023-03-14T02:21:56;8.65;;;1.95;;
27746;SDS011;15138;51.012;4.692;2023-03-14T02:24:27;11.00;;;1.60;;
27746;SDS011;15138;51.012;4.692;2023-03-14T02:27:20;9.43;;;1.55;;
27746;SDS011;15138;51.012;4.692;2023-03-14T02:29:49;9.88;;;1.98;;
27746;SDS011;15138;51.012;4.692;2023-03-14T02:32:20;6.97;;;1.38;;
27746;SDS011;15138;51.012;4.692;2023-03-14T02:34:49;5.88;;;1.23;;
27746;SDS011;15138;51.012;4.692;2023-03-14T02:37:20;7.35;;;1.50;;
27746;SDS011;15138;51.012;4.692;2023-03-14T02:39:49;5.70;;;1.27;;
27746;SDS011;15138;51.012;4.692;2023-03-14T02:42:20;5.60;;;0.88;;
27746;SDS011;15138;51.012;4.692;2023-03-14T02:44:50;4.47;;;0.82;;
27746;SDS011;15138;51.012;4.692;2023-03-14T02:47:20;3.70;;;0.80;;
27746;SDS011;15138;51.012;4.692;2023-03-14T02:49:51;4.60;;;1.15;;
27746;SDS011;15138;51.012;4.692;2023-03-14T02:52:20;4.80;;;0.95;;
27746;SDS011;15138;51.012;4.692;2023-03-14T02:54:49;4.65;;;0.80;;
27746;SDS011;15138;51.012;4.692;2023-03-14T02:57:17;5.78;;;0.80;;
27746;SDS011;15138;51.012;4.692;2023-03-14T02:59:47;5.38;;;0.93;;
27746;SDS011;15138;51.012;4.692;2023-03-14T03:02:16;4.78;;;1.05;;
27746;SDS011;15138;51.012;4.692;2023-03-14T03:04:44;3.17;;;0.90;;
27746;SDS011;15138;51.012;4.692;2023-03-14T03:07:13;2.78;;;1.08;;
27746;SDS011;15138;51.012;4.692;2023-03-14T03:09:41;5.65;;;1.00;;
27746;SDS011;15138;51.012;4.692;2023-03-14T03:12:10;5.07;;;1.02;;
27746;SDS011;15138;51.012;4.692;2023-03-14T03:14:39;5.07;;;1.52;;
27746;SDS011;15138;51.012;4.692;2023-03-14T03:17:09;4.68;;;1.17;;
27746;SDS011;15138;51.012;4.692;2023-03-14T03:19:37;5.60;;;1.25;;
27746;SDS011;15138;51.012;4.692;2023-03-14T03:22:05;5.28;;;1.08;;
27746;SDS011;15138;51.012;4.692;2023-03-14T03:24:34;4.85;;;1.10;;
27746;SDS011;15138;51.012;4.692;2023-03-14T03:27:03;4.03;;;1.02;;
27746;SDS011;15138;51.012;4.692;2023-03-14T03:29:31;9.00;;;1.50;;
27746;SDS011;15138;51.012;4.692;2023-03-14T03:31:59;5.78;;;1.40;;
27746;SDS011;15138;51.012;4.692;2023-03-14T03:34:29;4.30;;;1.02;;
27746;SDS011;15138;51.012;4.692;2023-03-14T03:36:57;6.00;;;1.10;;
27746;SDS011;15138;51.012;4.692;2023-03-14T03:39:26;8.07;;;1.45;;
27746;SDS011;15138;51.012;4.692;2023-03-14T03:41:54;7.20;;;1.30;;
27746;SDS011;15138;51.012;4.692;2023-03-14T03:44:23;9.35;;;1.48;;
27746;SDS011;15138;51.012;4.692;2023-03-14T03:46:51;7.60;;;1.17;;
27746;SDS011;15138;51.012;4.692;2023-03-14T03:49:20;5.68;;;1.38;;
27746;SDS011;15138;51.012;4.692;2023-03-14T03:51:50;5.25;;;1.50;;
27746;SDS011;15138;51.012;4.692;2023-03-14T03:54:18;5.53;;;1.45;;
27746;SDS011;15138;51.012;4.692;2023-03-14T03:56:46;4.90;;;1.60;;
27746;SDS011;15138;51.012;4.692;2023-03-14T03:59:15;11.80;;;1.95;;
27746;SDS011;15138;51.012;4.692;2023-03-14T04:01:44;7.55;;;1.70;;
27746;SDS011;15138;51.012;4.692;2023-03-14T04:04:12;10.77;;;1.88;;
27746;SDS011;15138;51.012;4.692;2023-03-14T04:06:41;8.32;;;1.67;;
27746;SDS011;15138;51.012;4.692;2023-03-14T04:09:11;10.05;;;2.03;;
27746;SDS011;15138;51.012;4.692;2023-03-14T04:11:39;9.27;;;2.08;;
27746;SDS011;15138;51.012;4.692;2023-03-14T04:14:08;9.98;;;1.80;;
27746;SDS011;15138;51.012;4.692;2023-03-14T04:16:37;11.73;;;2.90;;
27746;SDS011;15138;51.012;4.692;2023-03-14T04:19:05;11.43;;;2.42;;
27746;SDS011;15138;51.012;4.692;2023-03-14T04:21:34;11.30;;;2.20;;
27746;SDS011;15138;51.012;4.692;2023-03-14T04:24:03;7.43;;;1.92;;
27746;SDS011;15138;51.012;4.692;2023-03-14T04:26:33;7.80;;;1.90;;
27746;SDS011;15138;51.012;4.692;2023-03-14T04:29:01;8.77;;;2.30;;
27746;SDS011;15138;51.012;4.692;2023-03-14T04:31:30;8.65;;;1.80;;
27746;SDS011;15138;51.012;4.692;2023-03-14T04:33:58;7.20;;;2.20;;
27746;SDS011;15138;51.012;4.692;2023-03-14T04:36:27;11.27;;;1.83;;
27746;SDS011;15138;51.012;4.692;2023-03-14T04:38:55;7.80;;;1.52;;
27746;SDS011;15138;51.012;4.692;2023-03-14T04:41:24;7.22;;;1.80;;
27746;SDS011;15138;51.012;4.692;2023-03-14T04:43:54;9.25;;;1.98;;
27746;SDS011;15138;51.012;4.692;2023-03-14T04:46:23;11.32;;;1.95;;
27746;SDS011;15138;51.012;4.692;2023-03-14T04:48:52;6.57;;;2.40;;
27746;SDS011;15138;51.012;4.692;2023-03-14T04:51:22;7.30;;;1.92;;
27746;SDS011;15138;51.012;4.692;2023-03-14T04:53:53;10.43;;;2.45;;
27746;SDS011;15138;51.012;4.692;2023-03-14T04:56:21;8.38;;;2.45;;
27746;SDS011;15138;51.012;4.692;2023-03-14T04:58:50;4.97;;;2.13;;
27746;SDS011;15138;51.012;4.692;2023-03-14T05:01:19;10.20;;;2.88;;
27746;SDS011;15138;51.012;4.692;2023-03-14T05:03:48;9.63;;;2.08;;
27746;SDS011;15138;51.012;4.692;2023-03-14T05:06:16;9.05;;;3.17;;
27746;SDS011;15138;51.012;4.692;2023-03-14T05:08:45;5.93;;;2.08;;
27746;SDS011;15138;51.012;4.692;2023-03-14T05:11:13;9.80;;;3.20;;
27746;SDS011;15138;51.012;4.692;2023-03-14T05:13:41;9.77;;;2.85;;
27746;SDS011;15138;51.012;4.692;2023-03-14T05:16:10;10.40;;;3.50;;
27746;SDS011;15138;51.012;4.692;2023-03-14T05:18:41;9.98;;;2.38;;
27746;SDS011;15138;51.012;4.692;2023-03-14T05:21:09;6.97;;;3.08;;
27746;SDS011;15138;51.012;4.692;2023-03-14T05:23:37;7.65;;;3.00;;
27746;SDS011;15138;51.012;4.692;2023-03-14T05:26:06;8.63;;;2.72;;
27746;SDS011;15138;51.012;4.692;2023-03-14T05:28:34;9.57;;;2.58;;
27746;SDS011;15138;51.012;4.692;2023-03-14T05:31:06;8.25;;;2.83;;
27746;SDS011;15138;51.012;4.692;2023-03-14T05:33:35;10.05;;;3.25;;
27746;SDS011;15138;51.012;4.692;2023-03-14T05:36:05;7.40;;;3.28;;
27746;SDS011;15138;51.012;4.692;2023-03-14T05:38:34;9.35;;;3.33;;
27746;SDS011;15138;51.012;4.692;2023-03-14T05:41:03;10.10;;;3.47;;
27746;SDS011;15138;51.012;4.692;2023-03-14T05:43:32;7.32;;;3.13;;
27746;SDS011;15138;51.012;4.692;2023-03-14T05:46:00;9.55;;;3.40;;
27746;SDS011;15138;51.012;4.692;2023-03-14T05:48:28;8.13;;;3.42;;
27746;SDS011;15138;51.012;4.692;2023-03-14T05:50:57;9.20;;;3.20;;
27746;SDS011;15138;51.012;4.692;2023-03-14T05:53:28;8.63;;;2.75;;
27746;SDS011;15138;51.012;4.692;2023-03-14T05:55:57;6.45;;;3.40;;
27746;SDS011;15138;51.012;4.692;2023-03-14T05:58:25;7.35;;;3.10;;
27746;SDS011;15138;51.012;4.692;2023-03-14T06:00:53;7.18;;;3.03;;
27746;SDS011;15138;51.012;4.692;2023-03-14T06:03:22;7.18;;;2.65;;
27746;SDS011;15138;51.012;4.692;2023-03-14T06:05:50;6.35;;;2.88;;
27746;SDS011;15138;51.012;4.692;2023-03-14T06:08:19;6.22;;;2.67;;
27746;SDS011;15138;51.012;4.692;2023-03-14T06:10:49;7.38;;;2.50;;
27746;SDS011;15138;51.012;4.692;2023-03-14T06:13:18;5.38;;;2.33;;
27746;SDS011;15138;51.012;4.692;2023-03-14T06:15:46;6.55;;;2.10;;
27746;SDS011;15138;51.012;4.692;2023-03-14T06:18:14;4.97;;;2.42;;
27746;SDS011;15138;51.012;4.692;2023-03-14T06:20:43;6.95;;;2.60;;
27746;SDS011;15138;51.012;4.692;2023-03-14T06:23:11;5.85;;;2.47;;
27746;SDS011;15138;51.012;4.692;2023-03-14T06:25:40;4.75;;;2.67;;
27746;SDS011;15138;51.012;4.692;2023-03-14T06:28:10;5.68;;;3.10;;
27746;SDS011;15138;51.012;4.692;2023-03-14T06:30:38;4.38;;;2.72;;
27746;SDS011;15138;51.012;4.692;2023-03-14T06:33:08;5.70;;;2.50;;
27746;SDS011;15138;51.012;4.692;2023-03-14T06:35:37;3.75;;;2.78;;
27746;SDS011;15138;51.012;4.692;2023-03-14T06:38:05;6.20;;;3.95;;
27746;SDS011;15138;51.012;4.692;2023-03-14T06:40:34;6.80;;;3.28;;
27746;SDS011;15138;51.012;4.692;2023-03-14T06:43:02;6.78;;;4.10;;
27746;SDS011;15138;51.012;4.692;2023-03-14T06:45:32;5.38;;;2.92;;
27746;SDS011;15138;51.012;4.692;2023-03-14T06:48:00;5.43;;;2.72;;
27746;SDS011;15138;51.012;4.692;2023-03-14T06:50:28;6.43;;;3.50;;
27746;SDS011;15138;51.012;4.692;2023-03-14T06:52:57;7.07;;;3.40;;
27746;SDS011;15138;51.012;4.692;2023-03-14T06:55:25;8.40;;;3.15;;
27746;SDS011;15138;51.012;4.692;2023-03-14T06:57:54;7.07;;;3.15;;
27746;SDS011;15138;51.012;4.692;2023-03-14T07:00:22;7.20;;;2.85;;
27746;SDS011;15138;51.012;4.692;2023-03-14T07:02:53;5.10;;;2.55;;
27746;SDS011;15138;51.012;4.692;2023-03-14T07:05:21;1.08;;;0.55;;
27746;SDS011;15138;51.012;4.692;2023-03-14T07:07:49;1.67;;;0.95;;
27746;SDS011;15138;51.012;4.692;2023-03-14T07:10:18;3.33;;;1.02;;
27746;SDS011;15138;51.012;4.692;2023-03-14T07:12:46;2.40;;;1.17;;
27746;SDS011;15138;51.012;4.692;2023-03-14T07:15:15;4.97;;;1.00;;
27746;SDS011;15138;51.012;4.692;2023-03-14T07:17:45;1.42;;;0.80;;
27746;SDS011;15138;51.012;4.692;2023-03-14T07:20:16;1.67;;;0.70;;
27746;SDS011;15138;51.012;4.692;2023-03-14T07:22:46;1.90;;;0.82;;
27746;SDS011;15138;51.012;4.692;2023-03-14T07:25:15;1.88;;;0.80;;
27746;SDS011;15138;51.012;4.692;2023-03-14T07:27:45;1.30;;;0.52;;
27746;SDS011;15138;51.012;4.692;2023-03-14T07:30:14;2.63;;;0.63;;
27746;SDS011;15138;51.012;4.692;2023-03-14T07:32:42;0.68;;;0.60;;
27746;SDS011;15138;51.012;4.692;2023-03-14T07:35:11;2.25;;;0.60;;
27746;SDS011;15138;51.012;4.692;2023-03-14T07:37:41;1.85;;;0.90;;
27746;SDS011;15138;51.012;4.692;2023-03-14T07:40:10;3.75;;;0.90;;
27746;SDS011;15138;51.012;4.692;2023-03-14T07:42:41;1.45;;;0.60;;
27746;SDS011;15138;51.012;4.692;2023-03-14T07:45:10;1.23;;;0.50;;
27746;SDS011;15138;51.012;4.692;2023-03-14T07:47:38;2.40;;;0.77;;
27746;SDS011;15138;51.012;4.692;2023-03-14T07:50:08;2.15;;;0.65;;
27746;SDS011;15138;51.012;4.692;2023-03-14T07:52:37;1.80;;;0.70;;
27746;SDS011;15138;51.012;4.692;2023-03-14T07:55:07;2.85;;;0.63;;
27746;SDS011;15138;51.012;4.692;2023-03-14T07:57:36;1.75;;;0.73;;
27746;SDS011;15138;51.012;4.692;2023-03-14T08:00:05;1.88;;;0.73;;
27746;SDS011;15138;51.012;4.692;2023-03-14T08:02:35;4.63;;;1.60;;
27746;SDS011;15138;51.012;4.692;2023-03-14T08:05:04;1.88;;;1.00;;
27746;SDS011;15138;51.012;4.692;2023-03-14T08:07:32;4.95;;;1.10;;
27746;SDS011;15138;51.012;4.692;2023-03-14T08:10:01;2.40;;;0.93;;
27746;SDS011;15138;51.012;4.692;2023-03-14T08:12:31;4.72;;;0.90;;
27746;SDS011;15138;51.012;4.692;2023-03-14T08:15:00;2.80;;;0.80;;
27746;SDS011;15138;51.012;4.692;2023-03-14T08:17:28;6.10;;;1.67;;
27746;SDS011;15138;51.012;4.692;2023-03-14T08:19:57;1.80;;;0.93;;
27746;SDS011;15138;51.012;4.692;2023-03-14T08:22:25;2.28;;;0.93;;
27746;SDS011;15138;51.012;4.692;2023-03-14T08:24:54;4.00;;;1.10;;
27746;SDS011;15138;51.012;4.692;2023-03-14T08:27:22;2.25;;;0.80;;
27746;SDS011;15138;51.012;4.692;2023-03-14T08:29:52;1.92;;;0.90;;
27746;SDS011;15138;51.012;4.692;2023-03-14T08:32:20;6.35;;;1.33;;
27746;SDS011;15138;51.012;4.692;2023-03-14T08:34:50;5.93;;;0.95;;
27746;SDS011;15138;51.012;4.692;2023-03-14T08:37:18;4.00;;;1.05;;
27746;SDS011;15138;51.012;4.692;2023-03-14T08:39:52;2.60;;;1.10;;
27746;SDS011;15138;51.012;4.692;2023-03-14T08:42:21;2.63;;;0.95;;
27746;SDS011;15138;51.012;4.692;2023-03-14T08:44:51;3.80;;;0.90;;
27746;SDS011;15138;51.012;4.692;2023-03-14T08:47:20;4.38;;;0.98;;
27746;SDS011;15138;51.012;4.692;2023-03-14T08:49:48;1.50;;;0.80;;
27746;SDS011;15138;51.012;4.692;2023-03-14T08:52:17;2.50;;;1.10;;
27746;SDS011;15138;51.012;4.692;2023-03-14T08:54:45;5.97;;;1.15;;
27746;SDS011;15138;51.012;4.692;2023-03-14T08:57:14;5.00;;;0.90;;
27746;SDS011;15138;51.012;4.692;2023-03-14T08:59:42;1.27;;;0.60;;
27746;SDS011;15138;51.012;4.692;2023-03-14T09:02:12;5.63;;;1.20;;
27746;SDS011;15138;51.012;4.692;2023-03-14T09:04:41;3.08;;;0.98;;
27746;SDS011;15138;51.012;4.692;2023-03-14T09:07:09;6.90;;;1.20;;
27746;SDS011;15138;51.012;4.692;2023-03-14T09:09:37;3.53;;;1.13;;
27746;SDS011;15138;51.012;4.692;2023-03-14T09:12:06;5.50;;;0.98;;
27746;SDS011;15138;51.012;4.692;2023-03-14T09:14:35;3.58;;;0.70;;
27746;SDS011;15138;51.012;4.692;2023-03-14T09:17:03;7.40;;;0.85;;
27746;SDS011;15138;51.012;4.692;2023-03-14T09:19:34;3.58;;;0.80;;
27746;SDS011;15138;51.012;4.692;2023-03-14T09:22:02;3.15;;;0.80;;
27746;SDS011;15138;51.012;4.692;2023-03-14T09:24:31;3.53;;;0.85;;
27746;SDS011;15138;51.012;4.692;2023-03-14T09:26:59;2.80;;;0.82;;
27746;SDS011;15138;51.012;4.692;2023-03-14T09:29:28;2.15;;;0.68;;
27746;SDS011;15138;51.012;4.692;2023-03-14T09:31:57;5.28;;;1.05;;
27746;SDS011;15138;51.012;4.692;2023-03-14T09:34:26;2.53;;;1.02;;
27746;SDS011;15138;51.012;4.692;2023-03-14T09:36:56;1.73;;;0.60;;
27746;SDS011;15138;51.012;4.692;2023-03-14T09:39:25;2.38;;;1.17;;
27746;SDS011;15138;51.012;4.692;2023-03-14T09:41:53;5.20;;;1.00;;
27746;SDS011;15138;51.012;4.692;2023-03-14T09:44:25;3.70;;;1.05;;
27746;SDS011;15138;51.012;4.692;2023-03-14T09:46:57;7.95;;;1.45;;
27746;SDS011;15138;51.012;4.692;2023-03-14T09:49:30;5.90;;;1.30;;
27746;SDS011;15138;51.012;4.692;2023-03-14T09:52:02;7.20;;;2.53;;
27746;SDS011;15138;51.012;4.692;2023-03-14T09:54:38;1.73;;;0.93;;
27746;SDS011;15138;51.012;4.692;2023-03-14T09:57:11;0.80;;;0.52;;
27746;SDS011;15138;51.012;4.692;2023-03-14T09:59:42;3.22;;;0.55;;
27746;SDS011;15138;51.012;4.692;2023-03-14T10:02:14;0.73;;;0.50;;
27746;SDS011;15138;51.012;4.692;2023-03-14T10:04:46;1.23;;;0.50;;
27746;SDS011;15138;51.012;4.692;2023-03-14T10:07:17;1.33;;;0.50;;
27746;SDS011;15138;51.012;4.692;2023-03-14T10:09:49;1.42;;;0.60;;
27746;SDS011;15138;51.012;4.692;2023-03-14T10:12:18;2.78;;;0.80;;
27746;SDS011;15138;51.012;4.692;2023-03-14T10:14:48;3.38;;;0.95;;
27746;SDS011;15138;51.012;4.692;2023-03-14T10:17:18;2.88;;;0.85;;
27746;SDS011;15138;51.012;4.692;2023-03-14T10:19:52;1.67;;;0.75;;
27746;SDS011;15138;51.012;4.692;2023-03-14T10:22:24;2.40;;;1.33;;
27746;SDS011;15138;51.012;4.692;2023-03-14T10:24:55;2.13;;;1.17;;
27746;SDS011;15138;51.012;4.692;2023-03-14T10:27:28;6.25;;;0.98;;
27746;SDS011;15138;51.012;4.692;2023-03-14T10:29:58;0.82;;;0.50;;
27746;SDS011;15138;51.012;4.692;2023-03-14T10:32:28;4.10;;;1.15;;
27746;SDS011;15138;51.012;4.692;2023-03-14T10:35:05;3.17;;;1.13;;
27746;SDS011;15138;51.012;4.692;2023-03-14T10:37:36;7.07;;;1.40;;
27746;SDS011;15138;51.012;4.692;2023-03-14T10:40:18;2.88;;;0.90;;
27746;SDS011;15138;51.012;4.692;2023-03-14T10:42:48;2.38;;;1.10;;
27746;SDS011;15138;51.012;4.692;2023-03-14T10:48:07;1.23;;;0.95;;
27746;SDS011;15138;51.012;4.692;2023-03-14T10:50:49;2.85;;;1.60;;
27746;SDS011;15138;51.012;4.692;2023-03-14T10:53:23;1.92;;;1.13;;
27746;SDS011;15138;51.012;4.692;2023-03-14T10:55:55;2.67;;;1.30;;
27746;SDS011;15138;51.012;4.692;2023-03-14T10:58:25;1.40;;;1.10;;
27746;SDS011;15138;51.012;4.692;2023-03-14T11:01:00;2.78;;;1.25;;
27746;SDS011;15138;51.012;4.692;2023-03-14T11:03:40;4.88;;;1.50;;
27746;SDS011;15138;51.012;4.692;2023-03-14T11:06:16;3.50;;;1.33;;
27746;SDS011;15138;51.012;4.692;2023-03-14T11:08:50;3.80;;;1.60;;
27746;SDS011;15138;51.012;4.692;2023-03-14T11:11:25;3.17;;;0.82;;
27746;SDS011;15138;51.012;4.692;2023-03-14T11:14:00;5.47;;;1.50;;
27746;SDS011;15138;51.012;4.692;2023-03-14T11:16:38;3.97;;;1.50;;
27746;SDS011;15138;51.012;4.692;2023-03-14T11:19:17;2.15;;;0.90;;
27746;SDS011;15138;51.012;4.692;2023-03-14T11:21:59;1.60;;;0.90;;
27746;SDS011;15138;51.012;4.692;2023-03-14T11:24:38;3.35;;;0.98;;
27746;SDS011;15138;51.012;4.692;2023-03-14T11:27:17;3.60;;;1.27;;
27746;SDS011;15138;51.012;4.692;2023-03-14T11:29:54;4.32;;;1.10;;
27746;SDS011;15138;51.012;4.692;2023-03-14T11:32:33;2.22;;;1.08;;
27746;SDS011;15138;51.012;4.692;2023-03-14T11:35:08;5.70;;;1.30;;
27746;SDS011;15138;51.012;4.692;2023-03-14T11:37:46;3.88;;;1.40;;
27746;SDS011;15138;51.012;4.692;2023-03-14T11:40:20;4.03;;;1.38;;
27746;SDS011;15138;51.012;4.692;2023-03-14T11:42:52;4.78;;;1.48;;
27746;SDS011;15138;51.012;4.692;2023-03-14T11:45:29;5.15;;;1.35;;
27746;SDS011;15138;51.012;4.692;2023-03-14T11:48:09;3.58;;;1.35;;
27746;SDS011;15138;51.012;4.692;2023-03-14T11:50:46;3.00;;;1.42;;
27746;SDS011;15138;51.012;4.692;2023-03-14T11:53:19;2.85;;;1.10;;
27746;SDS011;15138;51.012;4.692;2023-03-14T11:55:54;4.95;;;1.20;;
27746;SDS011;15138;51.012;4.692;2023-03-14T11:58:23;5.75;;;1.15;;
27746;SDS011;15138;51.012;4.692;2023-03-14T12:00:55;5.03;;;1.20;;
27746;SDS011;15138;51.012;4.692;2023-03-14T12:03:27;3.08;;;0.90;;
27746;SDS011;15138;51.012;4.692;2023-03-14T12:06:02;3.40;;;1.20;;
27746;SDS011;15138;51.012;4.692;2023-03-14T12:08:45;1.75;;;0.98;;
27746;SDS011;15138;51.012;4.692;2023-03-14T12:11:32;5.32;;;1.40;;
27746;SDS011;15138;51.012;4.692;2023-03-14T12:14:15;11.88;;;1.70;;
27746;SDS011;15138;51.012;4.692;2023-03-14T12:16:46;6.10;;;1.10;;
27746;SDS011;15138;51.012;4.692;2023-03-14T12:24:53;8.10;;;1.73;;
27746;SDS011;15138;51.012;4.692;2023-03-14T12:27:45;8.45;;;1.63;;
27746;SDS011;15138;51.012;4.692;2023-03-14T12:30:23;8.13;;;1.77;;
27746;SDS011;15138;51.012;4.692;2023-03-14T12:33:11;7.18;;;2.20;;
27746;SDS011;15138;51.012;4.692;2023-03-14T12:35:50;12.45;;;2.35;;
27746;SDS011;15138;51.012;4.692;2023-03-14T12:38:21;10.63;;;2.22;;
27746;SDS011;15138;51.012;4.692;2023-03-14T12:40:58;12.07;;;2.20;;
27746;SDS011;15138;51.012;4.692;2023-03-14T12:43:32;13.32;;;2.13;;
27746;SDS011;15138;51.012;4.692;2023-03-14T12:46:07;11.48;;;2.40;;
27746;SDS011;15138;51.012;4.692;2023-03-14T12:48:43;11.30;;;2.47;;
27746;SDS011;15138;51.012;4.692;2023-03-14T12:51:13;14.70;;;3.10;;
27746;SDS011;15138;51.012;4.692;2023-03-14T12:53:50;20.92;;;3.33;;
27746;SDS011;15138;51.012;4.692;2023-03-14T12:56:38;22.08;;;2.92;;
27746;SDS011;15138;51.012;4.692;2023-03-14T12:59:29;15.25;;;3.03;;
27746;SDS011;15138;51.012;4.692;2023-03-14T13:02:00;17.92;;;2.92;;
27746;SDS011;15138;51.012;4.692;2023-03-14T13:04:32;21.25;;;3.13;;
27746;SDS011;15138;51.012;4.692;2023-03-14T13:07:10;23.65;;;3.15;;
27746;SDS011;15138;51.012;4.692;2023-03-14T13:12:34;9.43;;;1.75;;
27746;SDS011;15138;51.012;4.692;2023-03-14T13:18:01;15.40;;;2.33;;
27746;SDS011;15138;51.012;4.692;2023-03-14T13:20:37;20.50;;;3.33;;
27746;SDS011;15138;51.012;4.692;2023-03-14T13:23:19;13.43;;;2.38;;
27746;SDS011;15138;51.012;4.692;2023-03-14T13:25:48;13.30;;;2.47;;
27746;SDS011;15138;51.012;4.692;2023-03-14T13:28:17;9.85;;;2.00;;
27746;SDS011;15138;51.012;4.692;2023-03-14T13:30:48;13.50;;;2.30;;
27746;SDS011;15138;51.012;4.692;2023-03-14T13:33:19;15.80;;;2.75;;
27746;SDS011;15138;51.012;4.692;2023-03-14T13:35:53;13.35;;;2.30;;
27746;SDS011;15138;51.012;4.692;2023-03-14T13:38:24;14.48;;;2.53;;
27746;SDS011;15138;51.012;4.692;2023-03-14T13:40:54;18.85;;;3.17;;
27746;SDS011;15138;51.012;4.692;2023-03-14T13:43:27;15.45;;;2.72;;
27746;SDS011;15138;51.012;4.692;2023-03-14T13:46:03;19.50;;;2.88;;
27746;SDS011;15138;51.012;4.692;2023-03-14T13:48:34;16.10;;;2.80;;
27746;SDS011;15138;51.012;4.692;2023-03-14T13:51:12;16.92;;;3.05;;
27746;SDS011;15138;51.012;4.692;2023-03-14T13:53:42;12.48;;;2.45;;
27746;SDS011;15138;51.012;4.692;2023-03-14T13:56:11;17.67;;;3.15;;
27746;SDS011;15138;51.012;4.692;2023-03-14T13:58:41;25.00;;;4.10;;
27746;SDS011;15138;51.012;4.692;2023-03-14T14:01:12;17.48;;;3.65;;
27746;SDS011;15138;51.012;4.692;2023-03-14T14:03:44;20.33;;;3.42;;
27746;SDS011;15138;51.012;4.692;2023-03-14T14:06:23;18.45;;;3.33;;
27746;SDS011;15138;51.012;4.692;2023-03-14T14:08:55;23.40;;;3.05;;
27746;SDS011;15138;51.012;4.692;2023-03-14T14:11:28;25.92;;;3.60;;
27746;SDS011;15138;51.012;4.692;2023-03-14T14:14:17;21.90;;;4.28;;
27746;SDS011;15138;51.012;4.692;2023-03-14T14:16:51;16.63;;;3.67;;
27746;SDS011;15138;51.012;4.692;2023-03-14T14:19:21;24.15;;;4.85;;
27746;SDS011;15138;51.012;4.692;2023-03-14T14:21:51;12.07;;;2.55;;
27746;SDS011;15138;51.012;4.692;2023-03-14T14:24:20;7.35;;;1.50;;
27746;SDS011;15138;51.012;4.692;2023-03-14T14:26:50;12.00;;;2.30;;
27746;SDS011;15138;51.012;4.692;2023-03-14T14:29:29;11.60;;;2.03;;
27746;SDS011;15138;51.012;4.692;2023-03-14T14:32:01;7.93;;;1.20;;
27746;SDS011;15138;51.012;4.692;2023-03-14T14:34:37;7.47;;;1.70;;
27746;SDS011;15138;51.012;4.692;2023-03-14T14:37:15;9.32;;;1.88;;
27746;SDS011;15138;51.012;4.692;2023-03-14T14:39:53;4.88;;;1.70;;
27746;SDS011;15138;51.012;4.692;2023-03-14T14:42:25;10.82;;;1.45;;
27746;SDS011;15138;51.012;4.692;2023-03-14T14:44:55;7.43;;;1.48;;
27746;SDS011;15138;51.012;4.692;2023-03-14T14:47:26;12.15;;;1.95;;
27746;SDS011;15138;51.012;4.692;2023-03-14T14:50:00;9.25;;;1.90;;
27746;SDS011;15138;51.012;4.692;2023-03-14T14:52:34;8.73;;;1.15;;
27746;SDS011;15138;51.012;4.692;2023-03-14T14:55:12;9.82;;;1.85;;
27746;SDS011;15138;51.012;4.692;2023-03-14T14:57:48;17.63;;;1.92;;
27746;SDS011;15138;51.012;4.692;2023-03-14T15:00:19;5.85;;;1.60;;
27746;SDS011;15138;51.012;4.692;2023-03-14T15:02:51;4.63;;;1.13;;
27746;SDS011;15138;51.012;4.692;2023-03-14T15:05:22;9.93;;;1.48;;
27746;SDS011;15138;51.012;4.692;2023-03-14T15:07:52;9.70;;;1.50;;
27746;SDS011;15138;51.012;4.692;2023-03-14T15:10:21;4.55;;;1.25;;
27746;SDS011;15138;51.012;4.692;2023-03-14T15:12:51;7.38;;;1.63;;
27746;SDS011;15138;51.012;4.692;2023-03-14T15:15:20;6.07;;;1.23;;
27746;SDS011;15138;51.012;4.692;2023-03-14T15:17:50;7.65;;;1.20;;
27746;SDS011;15138;51.012;4.692;2023-03-14T15:20:19;4.65;;;0.93;;